Terminal Aerodrome Forecast
Issued by NWS Northern Indiana

Home | Current Version | Previous Version | Graphics & Text | Print | Product List | Glossary On
Versions: 1 2 3 4 5 6 7 8 9 10 11 12 13 14
000
FTUS43 KIWX 261700
TAFFWA
TAF
KFWA 261721Z 2618/2718 22004KT P6SM SCT040 BKN250
     FM262000 24007KT P6SM VCTS BKN035CB OVC250
     FM262300 33005KT P6SM BKN250=

USA.gov is the U.S. government's official web portal to all federal, state and local government web resources and services.